createdAt,value
2019-02-19T00:01:02.792Z,17.23
2019-02-19T00:03:32.324Z,13.67
2019-02-19T00:06:02.184Z,16.90
2019-02-19T00:08:31.749Z,13.50
2019-02-19T00:11:02.063Z,15.23
2019-02-19T00:13:32.057Z,15.27
2019-02-19T00:16:01.574Z,12.83
2019-02-19T00:18:31.075Z,15.03
2019-02-19T00:21:00.612Z,12.97
2019-02-19T00:23:30.507Z,14.30
2019-02-19T00:26:00.126Z,15.90
2019-02-19T00:28:29.656Z,14.97
2019-02-19T00:30:59.203Z,14.33
2019-02-19T00:33:28.742Z,12.43
2019-02-19T00:35:58.267Z,12.93
2019-02-19T00:38:27.810Z,14.97
2019-02-19T00:40:57.360Z,13.27
2019-02-19T00:43:32.608Z,14.23
2019-02-19T00:46:02.452Z,16.47
2019-02-19T00:48:31.976Z,14.47
2019-02-19T00:51:01.890Z,14.60
2019-02-19T00:53:31.414Z,13.57
2019-02-19T00:56:01.042Z,11.97
2019-02-19T00:58:30.519Z,14.23
2019-02-19T01:01:00.453Z,15.80
2019-02-19T01:03:30.050Z,13.90
2019-02-19T01:05:59.628Z,13.33
2019-02-19T01:08:29.583Z,13.53
2019-02-19T01:10:59.124Z,14.73
2019-02-19T01:13:28.654Z,12.63
2019-02-19T01:15:58.195Z,16.83
2019-02-19T01:18:27.738Z,18.73
2019-02-19T01:20:57.275Z,14.30
2019-02-19T01:23:26.739Z,19.10
2019-02-19T01:25:56.629Z,17.17
2019-02-19T01:28:26.148Z,15.23
2019-02-19T01:30:55.692Z,17.93
2019-02-19T01:33:25.260Z,17.17
2019-02-19T01:35:54.959Z,20.60
2019-02-19T01:38:24.464Z,17.00
2019-02-19T01:40:54.825Z,17.97
2019-02-19T01:43:24.349Z,17.57
2019-02-19T01:45:53.912Z,18.87
2019-02-19T01:48:23.433Z,21.87
2019-02-19T01:50:53.284Z,25.20
2019-02-19T01:53:22.795Z,26.30
2019-02-19T01:55:52.295Z,25.70
2019-02-19T01:58:22.440Z,23.20
2019-02-19T02:00:51.961Z,25.10
2019-02-19T02:03:21.878Z,25.70
2019-02-19T02:05:51.861Z,27.60
2019-02-19T02:08:21.404Z,26.07
2019-02-19T02:10:50.896Z,28.23
2019-02-19T02:13:20.452Z,30.73
2019-02-19T02:15:50.023Z,29.50
2019-02-19T02:18:19.540Z,29.70
2019-02-19T02:20:49.042Z,29.83
2019-02-19T02:23:18.508Z,33.77
2019-02-19T02:25:48.066Z,36.30
2019-02-19T02:28:17.616Z,31.63
2019-02-19T02:30:47.131Z,30.07
2019-02-19T02:33:16.628Z,36.63
2019-02-19T02:35:46.161Z,34.77
2019-02-19T02:38:15.679Z,34.13
2019-02-19T02:40:45.206Z,35.40
2019-02-19T02:43:14.714Z,32.67
2019-02-19T02:45:52.911Z,41.60
2019-02-19T02:48:15.805Z,34.17
2019-02-19T02:50:45.300Z,40.17
2019-02-19T02:53:14.860Z,41.00
2019-02-19T02:55:44.385Z,38.03
2019-02-19T02:58:13.963Z,38.57
2019-02-19T03:00:43.602Z,35.33
2019-02-19T03:03:13.161Z,41.83
2019-02-19T03:06:01.795Z,39.33
2019-02-19T03:08:31.362Z,38.67
2019-02-19T03:11:00.882Z,38.20
2019-02-19T03:13:31.308Z,40.90
2019-02-19T03:16:02.694Z,41.50
2019-02-19T03:18:32.004Z,41.13
2019-02-19T03:21:01.648Z,45.87
2019-02-19T03:23:31.547Z,44.90
2019-02-19T03:26:01.401Z,47.40
2019-02-19T03:28:31.830Z,47.10
2019-02-19T03:31:01.376Z,54.17
2019-02-19T03:33:30.865Z,50.10
2019-02-19T03:36:00.407Z,46.37
2019-02-19T03:38:29.907Z,46.83
2019-02-19T03:40:59.487Z,42.23
2019-02-19T03:43:28.978Z,42.57
2019-02-19T03:45:58.517Z,48.97
2019-02-19T03:48:28.062Z,44.67
2019-02-19T03:50:57.609Z,43.03
2019-02-19T03:53:27.123Z,41.93
2019-02-19T03:55:56.621Z,43.10
2019-02-19T03:58:26.108Z,40.43
2019-02-19T04:00:56.041Z,43.17
2019-02-19T04:03:25.623Z,40.00
2019-02-19T04:05:55.121Z,42.33
2019-02-19T04:08:24.689Z,43.20
2019-02-19T04:10:54.198Z,36.00
2019-02-19T04:13:23.744Z,36.50
2019-02-19T04:15:53.247Z,38.90
2019-02-19T04:18:22.796Z,35.57
2019-02-19T04:20:52.698Z,48.30
2019-02-19T04:23:22.249Z,41.43
2019-02-19T04:25:52.187Z,39.20
2019-02-19T04:28:22.107Z,39.43
2019-02-19T04:30:51.610Z,42.33
2019-02-19T04:33:21.114Z,42.87
2019-02-19T04:35:50.642Z,43.40
2019-02-19T04:38:20.627Z,43.80
2019-02-19T04:40:50.129Z,49.23
2019-02-19T04:43:19.641Z,42.90
2019-02-19T04:45:49.152Z,46.93
2019-02-19T04:48:18.631Z,42.47
2019-02-19T04:50:48.154Z,45.40
2019-02-19T04:53:17.793Z,45.77
2019-02-19T04:55:47.284Z,48.43
2019-02-19T04:58:16.821Z,47.63
2019-02-19T05:00:46.334Z,36.80
2019-02-19T05:03:16.356Z,44.10
2019-02-19T05:05:45.860Z,40.97
2019-02-19T05:08:15.409Z,44.57
2019-02-19T05:10:45.227Z,43.90
2019-02-19T05:13:14.754Z,43.63
2019-02-19T05:15:44.273Z,40.33
2019-02-19T05:18:14.234Z,46.30
2019-02-19T05:20:43.969Z,44.10
2019-02-19T05:23:13.453Z,40.60
2019-02-19T05:25:43.028Z,44.43
2019-02-19T05:28:12.951Z,45.50
2019-02-19T05:30:43.144Z,40.97
2019-02-19T05:33:12.794Z,42.40
2019-02-19T05:35:42.432Z,40.70
2019-02-19T05:38:11.990Z,43.27
2019-02-19T05:40:42.239Z,43.40
2019-02-19T05:43:12.215Z,40.73
2019-02-19T05:45:42.109Z,40.70
2019-02-19T05:48:11.700Z,40.17
2019-02-19T05:50:41.190Z,44.60
2019-02-19T05:53:11.307Z,36.87
2019-02-19T05:55:40.856Z,41.60
2019-02-19T05:58:10.715Z,40.80
2019-02-19T06:00:41.924Z,40.87
2019-02-19T06:03:11.974Z,38.87
2019-02-19T06:05:41.455Z,39.60
2019-02-19T06:08:11.271Z,37.77
2019-02-19T06:10:40.797Z,33.80
2019-02-19T06:13:10.300Z,36.17
2019-02-19T06:15:40.214Z,40.00
2019-02-19T06:18:10.665Z,37.53
2019-02-19T06:20:40.198Z,36.97
2019-02-19T06:23:10.248Z,37.40
2019-02-19T06:25:40.105Z,37.27
2019-02-19T06:28:10.035Z,39.40
2019-02-19T06:30:39.729Z,37.60
2019-02-19T06:33:09.208Z,39.23
2019-02-19T06:35:39.091Z,37.23
2019-02-19T06:38:08.819Z,41.20
2019-02-19T06:40:38.278Z,41.47
2019-02-19T06:43:07.786Z,35.10
2019-02-19T06:45:37.320Z,46.10
2019-02-19T06:48:06.846Z,38.77
2019-02-19T06:50:36.338Z,37.63
2019-02-19T06:53:05.864Z,36.77
2019-02-19T06:55:35.819Z,39.13
2019-02-19T06:58:05.343Z,38.23
2019-02-19T07:00:34.907Z,38.53
2019-02-19T07:03:19.341Z,41.80
2019-02-19T07:05:49.229Z,36.80
2019-02-19T07:08:18.792Z,36.83
2019-02-19T07:10:48.661Z,36.40
2019-02-19T07:13:18.193Z,41.73
2019-02-19T07:15:47.739Z,41.83
2019-02-19T07:18:17.261Z,40.60
2019-02-19T07:20:46.812Z,36.30
2019-02-19T07:23:16.310Z,38.40
2019-02-19T07:25:45.848Z,37.63
2019-02-19T07:28:15.395Z,36.90
2019-02-19T07:30:44.931Z,33.30
2019-02-19T07:33:14.498Z,33.37
2019-02-19T07:35:44.518Z,39.20
2019-02-19T07:38:13.995Z,35.97
2019-02-19T07:40:43.955Z,36.10
2019-02-19T07:43:13.480Z,37.40
2019-02-19T07:45:43.445Z,32.83
2019-02-19T07:48:12.956Z,33.43
2019-02-19T07:50:42.588Z,28.17
2019-02-19T07:53:12.125Z,33.70
2019-02-19T07:55:41.653Z,28.17
2019-02-19T07:58:11.175Z,29.87
2019-02-19T08:00:41.017Z,36.07
2019-02-19T08:03:10.865Z,28.33
2019-02-19T08:05:41.160Z,27.83
2019-02-19T08:08:10.729Z,27.13
2019-02-19T08:10:41.280Z,34.33
2019-02-19T08:13:10.819Z,30.00
2019-02-19T08:15:40.341Z,30.20
2019-02-19T08:18:10.722Z,29.93
2019-02-19T08:20:40.283Z,26.17
2019-02-19T08:23:10.298Z,25.27
2019-02-19T08:25:39.824Z,24.20
2019-02-19T08:28:09.372Z,29.53
2019-02-19T08:30:38.940Z,24.50
2019-02-19T08:33:08.556Z,22.17
2019-02-19T08:35:38.046Z,27.53
2019-02-19T08:38:08.005Z,30.50
2019-02-19T08:40:37.517Z,26.80
2019-02-19T08:43:07.044Z,23.87
2019-02-19T08:45:36.580Z,27.73
2019-02-19T08:48:06.115Z,22.83
2019-02-19T08:50:35.651Z,23.77
2019-02-19T08:53:05.201Z,26.20
2019-02-19T08:55:34.962Z,27.60
2019-02-19T08:58:05.409Z,21.50
2019-02-19T09:00:34.894Z,19.03
2019-02-19T09:03:04.952Z,25.83
2019-02-19T09:05:34.472Z,19.20
2019-02-19T09:08:04.440Z,23.67
2019-02-19T09:10:34.028Z,19.70
2019-02-19T09:13:04.107Z,20.93
2019-02-19T09:15:33.661Z,18.17
2019-02-19T09:18:03.177Z,18.57
2019-02-19T09:20:32.838Z,19.67
2019-02-19T09:23:02.745Z,16.40
2019-02-19T09:25:32.696Z,18.50
2019-02-19T09:28:02.211Z,21.83
2019-02-19T09:30:31.713Z,16.80
2019-02-19T09:33:02.084Z,17.70
2019-02-19T09:35:31.740Z,15.67
2019-02-19T09:38:01.291Z,15.53
2019-02-19T09:40:31.113Z,30.77
2019-02-19T09:43:00.682Z,26.10
2019-02-19T09:45:30.158Z,14.80
2019-02-19T09:48:01.429Z,16.03
2019-02-19T09:50:30.850Z,16.20
2019-02-19T09:53:00.511Z,22.00
2019-02-19T09:55:30.406Z,20.03
2019-02-19T09:58:01.040Z,18.60
2019-02-19T10:00:30.898Z,15.30
2019-02-19T10:03:00.457Z,16.00
2019-02-19T10:05:30.359Z,13.27
2019-02-19T10:08:00.244Z,17.10
2019-02-19T10:10:29.733Z,14.53
2019-02-19T10:12:59.255Z,15.03
2019-02-19T10:15:28.789Z,16.73
2019-02-19T10:17:58.738Z,13.93
2019-02-19T10:20:28.628Z,17.83
2019-02-19T10:22:58.164Z,19.07
2019-02-19T10:25:28.033Z,12.80
2019-02-19T10:27:57.572Z,12.90
2019-02-19T10:30:27.099Z,11.97
2019-02-19T10:32:56.770Z,19.00
2019-02-19T10:35:26.256Z,20.07
2019-02-19T10:37:56.061Z,12.43
2019-02-19T10:40:25.571Z,15.30
2019-02-19T10:42:55.244Z,18.30
2019-02-19T10:45:24.780Z,14.03
2019-02-19T10:47:54.252Z,17.43
2019-02-19T10:50:24.214Z,15.50
2019-02-19T10:52:53.740Z,12.50
2019-02-19T10:55:23.383Z,21.00
2019-02-19T10:57:52.915Z,16.47
2019-02-19T11:00:23.525Z,16.03
2019-02-19T11:02:53.080Z,12.53
2019-02-19T11:05:22.619Z,19.20
2019-02-19T11:07:52.173Z,11.40
2019-02-19T11:10:21.700Z,10.93
2019-02-19T11:12:51.201Z,12.13
2019-02-19T11:15:21.679Z,16.67
2019-02-19T11:17:51.968Z,12.80
2019-02-19T11:20:21.502Z,13.60
2019-02-19T11:22:51.364Z,17.00
2019-02-19T11:25:21.005Z,15.10
2019-02-19T11:27:50.510Z,12.20
2019-02-19T11:30:20.591Z,13.70
2019-02-19T11:32:50.354Z,13.50
2019-02-19T11:35:20.248Z,15.47
2019-02-19T11:37:49.739Z,15.40
2019-02-19T11:40:19.279Z,13.27
2019-02-19T11:42:48.836Z,17.30
2019-02-19T11:45:18.368Z,18.90
2019-02-19T11:47:48.230Z,15.87
2019-02-19T11:50:18.065Z,16.80
2019-02-19T11:52:47.581Z,17.93
2019-02-19T11:55:17.160Z,14.57
2019-02-19T11:57:47.045Z,16.90
2019-02-19T12:00:19.714Z,15.43
2019-02-19T12:02:49.221Z,16.30
2019-02-19T12:05:18.741Z,22.43
2019-02-19T12:07:48.311Z,16.67
2019-02-19T12:10:18.144Z,17.80
2019-02-19T12:12:48.032Z,17.47
2019-02-19T12:15:19.264Z,18.33
2019-02-19T12:17:48.923Z,15.10
2019-02-19T12:20:18.427Z,18.37
2019-02-19T12:22:48.589Z,14.67
2019-02-19T12:25:18.098Z,19.10
2019-02-19T12:27:47.625Z,16.23
2019-02-19T12:30:17.188Z,16.87
2019-02-19T12:32:46.680Z,20.13
2019-02-19T12:35:16.199Z,15.73
2019-02-19T12:37:45.714Z,18.53
2019-02-19T12:40:15.362Z,15.20
2019-02-19T12:42:45.213Z,16.83
2019-02-19T12:45:14.924Z,13.07
2019-02-19T12:47:44.403Z,15.80
2019-02-19T12:50:14.083Z,13.57
2019-02-19T12:52:43.626Z,13.30
2019-02-19T12:55:13.145Z,10.33
2019-02-19T12:57:42.662Z,11.40
2019-02-19T13:00:13.953Z,13.53
2019-02-19T13:02:44.211Z,16.13
2019-02-19T13:05:14.255Z,15.43
2019-02-19T13:07:43.784Z,15.10
2019-02-19T13:10:13.426Z,15.03
2019-02-19T13:12:42.952Z,10.43
2019-02-19T13:15:13.761Z,11.63
2019-02-19T13:17:43.276Z,10.97
2019-02-19T13:20:13.476Z,9.10
2019-02-19T13:22:42.967Z,14.50
2019-02-19T13:25:12.740Z,11.53
2019-02-19T13:27:42.236Z,10.97
2019-02-19T13:30:13.944Z,9.73
2019-02-19T13:32:43.511Z,11.10
2019-02-19T13:35:13.392Z,14.53
2019-02-19T13:37:43.050Z,9.37
2019-02-19T13:40:13.108Z,9.00
2019-02-19T13:42:42.673Z,10.53
2019-02-19T13:45:13.580Z,13.90
2019-02-19T13:47:43.050Z,11.77
2019-02-19T13:50:15.336Z,11.20
2019-02-19T13:53:03.728Z,12.30
2019-02-19T13:55:36.353Z,10.70
2019-02-19T13:58:05.834Z,12.33
2019-02-19T14:00:38.123Z,12.77
2019-02-19T14:03:07.650Z,13.47
2019-02-19T14:05:37.304Z,10.77
2019-02-19T14:08:14.207Z,8.67
2019-02-19T14:10:37.988Z,10.20
2019-02-19T14:13:07.507Z,7.50
2019-02-19T14:16:05.461Z,7.50
2019-02-19T14:18:53.905Z,6.97
2019-02-19T14:21:54.688Z,10.27
2019-02-19T14:24:58.530Z,8.63
2019-02-19T14:27:47.009Z,13.13
2019-02-19T14:30:34.170Z,9.67
2019-02-19T14:33:23.461Z,13.27
2019-02-19T14:36:04.862Z,11.40
2019-02-19T14:39:05.781Z,12.33
2019-02-19T14:41:52.608Z,6.73
2019-02-19T14:44:43.828Z,9.23
2019-02-19T14:47:35.012Z,7.63
2019-02-19T14:50:32.671Z,10.33
2019-02-19T14:53:30.282Z,7.20
2019-02-19T14:56:25.034Z,8.37
2019-02-19T14:59:12.593Z,8.03
2019-02-19T15:02:01.059Z,9.17
2019-02-19T15:04:53.119Z,7.60
2019-02-19T15:07:44.464Z,8.40
2019-02-19T15:10:41.201Z,8.80
2019-02-19T15:13:28.375Z,10.27
2019-02-19T15:16:15.458Z,12.53
2019-02-19T15:18:54.130Z,9.63
2019-02-19T15:21:41.302Z,12.90
2019-02-19T15:24:32.502Z,11.70
2019-02-19T15:27:21.352Z,8.77
2019-02-19T15:30:04.138Z,5.83
2019-02-19T15:32:52.892Z,6.50
2019-02-19T15:35:40.252Z,7.47
2019-02-19T15:38:19.956Z,11.97
2019-02-19T15:41:07.388Z,8.40
2019-02-19T15:43:52.202Z,8.10
2019-02-19T15:46:29.117Z,6.93
2019-02-19T15:49:22.173Z,7.60
2019-02-19T15:52:13.000Z,6.23
2019-02-19T15:55:03.029Z,6.43
2019-02-19T15:58:04.759Z,6.70
2019-02-19T16:00:43.512Z,5.10
2019-02-19T16:03:33.821Z,9.10
2019-02-19T16:06:22.054Z,4.20
2019-02-19T16:08:59.085Z,11.13
2019-02-19T16:11:50.780Z,7.73
2019-02-19T16:14:42.492Z,8.00
2019-02-19T16:17:32.074Z,9.83
2019-02-19T16:20:21.316Z,11.37
2019-02-19T16:23:09.988Z,7.30
2019-02-19T16:25:58.424Z,13.20
2019-02-19T16:29:02.405Z,6.30
2019-02-19T16:31:45.657Z,10.37
2019-02-19T16:34:37.302Z,10.57
2019-02-19T16:37:22.571Z,13.43
2019-02-19T16:40:17.761Z,8.13
2019-02-19T16:43:21.209Z,9.90
2019-02-19T16:46:10.085Z,6.53
2019-02-19T16:49:08.216Z,6.50
2019-02-19T16:51:46.195Z,8.37
2019-02-19T16:54:21.280Z,10.50
2019-02-19T16:57:08.763Z,10.47
2019-02-19T17:00:06.313Z,8.47
2019-02-19T17:03:07.106Z,6.63
2019-02-19T17:05:58.394Z,14.20
2019-02-19T17:08:45.443Z,8.10
2019-02-19T17:11:37.733Z,9.00
2019-02-19T17:14:38.658Z,6.60
2019-02-19T17:17:27.433Z,10.93
2019-02-19T17:20:21.243Z,6.37
2019-02-19T17:23:03.782Z,8.03
2019-02-19T17:26:01.322Z,7.40
2019-02-19T17:28:40.936Z,6.60
2019-02-19T17:31:29.412Z,10.63
2019-02-19T17:34:20.744Z,8.07
2019-02-19T17:37:06.354Z,8.20
2019-02-19T17:39:53.714Z,5.53
2019-02-19T17:42:57.340Z,8.53
2019-02-19T17:46:01.165Z,7.77
2019-02-19T17:48:58.448Z,8.87
2019-02-19T17:51:59.683Z,8.43
2019-02-19T17:54:50.957Z,9.40
2019-02-19T17:57:39.506Z,12.17
2019-02-19T18:00:19.428Z,6.33
2019-02-19T18:03:06.649Z,9.43
2019-02-19T18:05:46.000Z,9.13
2019-02-19T18:08:29.508Z,8.03
2019-02-19T18:11:16.975Z,8.53
2019-02-19T18:14:11.698Z,8.67
2019-02-19T18:16:54.169Z,10.17
2019-02-19T18:19:23.691Z,7.50
2019-02-19T18:21:53.194Z,6.40
2019-02-19T18:24:22.705Z,7.97
2019-02-19T18:26:52.289Z,6.07
2019-02-19T18:29:21.945Z,7.43
2019-02-19T18:31:51.448Z,9.27
2019-02-19T18:34:20.985Z,8.00
2019-02-19T18:36:50.516Z,9.33
2019-02-19T18:39:20.030Z,8.47
2019-02-19T18:41:49.531Z,11.03
2019-02-19T18:44:19.082Z,9.17
2019-02-19T18:46:48.920Z,9.10
2019-02-19T18:49:18.460Z,7.03
2019-02-19T18:51:48.336Z,10.10
2019-02-19T18:54:18.880Z,5.73
2019-02-19T18:56:48.391Z,9.43
2019-02-19T18:59:19.154Z,9.03
2019-02-19T19:01:48.636Z,10.90
2019-02-19T19:04:18.152Z,8.37
2019-02-19T19:06:47.725Z,10.10
2019-02-19T19:09:17.194Z,6.90
2019-02-19T19:11:47.124Z,8.63
2019-02-19T19:14:17.082Z,7.30
2019-02-19T19:16:46.601Z,7.10
2019-02-19T19:19:16.128Z,8.93
2019-02-19T19:21:45.789Z,8.40
2019-02-19T19:24:15.579Z,5.23
2019-02-19T19:26:45.111Z,11.07
2019-02-19T19:29:15.018Z,8.30
2019-02-19T19:31:44.914Z,11.03
2019-02-19T19:34:14.454Z,7.03
2019-02-19T19:36:44.771Z,13.17
2019-02-19T19:39:14.762Z,7.70
2019-02-19T19:41:44.407Z,11.00
2019-02-19T19:44:14.384Z,9.67
2019-02-19T19:46:43.919Z,12.20
2019-02-19T19:49:13.485Z,10.77
2019-02-19T19:51:43.083Z,6.50
2019-02-19T19:54:12.599Z,10.63
2019-02-19T19:56:42.478Z,10.67
2019-02-19T19:59:12.370Z,10.73
2019-02-19T20:01:42.304Z,12.10
2019-02-19T20:04:12.216Z,6.90
2019-02-19T20:06:42.045Z,8.70
2019-02-19T20:09:12.078Z,10.33
2019-02-19T20:11:42.352Z,11.10
2019-02-19T20:14:12.172Z,10.33
2019-02-19T20:16:41.632Z,12.43
2019-02-19T20:19:11.598Z,15.90
2019-02-19T20:21:41.544Z,12.50
2019-02-19T20:24:11.826Z,12.07
2019-02-19T20:26:41.379Z,8.40
2019-02-19T20:29:11.607Z,13.37
2019-02-19T20:31:41.466Z,8.17
2019-02-19T20:34:11.005Z,9.30
2019-02-19T20:36:40.505Z,11.13
2019-02-19T20:39:10.131Z,10.80
2019-02-19T20:41:39.987Z,14.20
2019-02-19T20:44:09.908Z,15.40
2019-02-19T20:46:39.827Z,12.53
2019-02-19T20:49:09.329Z,10.97
2019-02-19T20:51:39.387Z,14.53
2019-02-19T20:54:08.853Z,15.10
2019-02-19T20:56:38.354Z,11.97
2019-02-19T20:59:07.895Z,11.67
2019-02-19T21:01:37.439Z,15.70
2019-02-19T21:04:07.402Z,12.03
2019-02-19T21:06:36.951Z,15.20
2019-02-19T21:09:07.541Z,10.23
2019-02-19T21:11:37.060Z,13.73
2019-02-19T21:14:06.570Z,13.03
2019-02-19T21:16:36.114Z,15.00
2019-02-19T21:19:05.697Z,17.80
2019-02-19T21:21:35.501Z,15.13
2019-02-19T21:24:05.056Z,16.70
2019-02-19T21:26:34.983Z,17.43
2019-02-19T21:29:05.361Z,14.20
2019-02-19T21:31:38.125Z,15.80
2019-02-19T21:34:08.160Z,14.10
2019-02-19T21:36:37.695Z,16.07
2019-02-19T21:39:08.157Z,14.80
2019-02-19T21:41:38.171Z,12.73
2019-02-19T21:44:08.008Z,17.53
2019-02-19T21:46:37.480Z,14.13
2019-02-19T21:49:07.874Z,10.43
2019-02-19T21:51:38.516Z,17.80
2019-02-19T21:54:08.255Z,17.03
2019-02-19T21:56:37.768Z,21.53
2019-02-19T21:59:07.421Z,8.47
2019-02-19T22:01:37.028Z,13.07
2019-02-19T22:04:06.588Z,10.10
2019-02-19T22:06:36.348Z,29.77
2019-02-19T22:09:07.948Z,17.90
2019-02-19T22:11:37.513Z,16.00
2019-02-19T22:14:07.023Z,13.43
2019-02-19T22:16:36.587Z,13.77
2019-02-19T22:19:06.298Z,11.27
2019-02-19T22:21:44.016Z,14.03
2019-02-19T22:24:13.544Z,15.17
2019-02-19T22:26:44.137Z,12.30
2019-02-19T22:29:13.781Z,11.70
2019-02-19T22:31:43.277Z,15.50
2019-02-19T22:34:13.131Z,14.93
2019-02-19T22:36:42.991Z,10.47
2019-02-19T22:39:12.517Z,10.60
2019-02-19T22:41:42.101Z,10.70
2019-02-19T22:44:11.628Z,16.03
2019-02-19T22:46:41.161Z,13.33
2019-02-19T22:49:10.797Z,15.80
2019-02-19T22:51:40.311Z,11.33
2019-02-19T22:54:15.035Z,13.20
2019-02-19T22:56:46.149Z,10.87
2019-02-19T22:59:15.762Z,13.97
2019-02-19T23:01:54.269Z,13.80
2019-02-19T23:04:24.520Z,22.07
2019-02-19T23:06:54.082Z,10.50
2019-02-19T23:09:23.774Z,9.93
2019-02-19T23:11:53.467Z,11.07
2019-02-19T23:14:23.562Z,11.20
2019-02-19T23:16:53.422Z,10.77
2019-02-19T23:19:23.261Z,12.67
2019-02-19T23:21:53.232Z,14.53
2019-02-19T23:24:22.950Z,14.80
2019-02-19T23:26:52.521Z,10.40
2019-02-19T23:29:22.067Z,11.97
2019-02-19T23:31:51.580Z,9.03
2019-02-19T23:34:21.105Z,14.87
2019-02-19T23:37:00.884Z,13.67
2019-02-19T23:39:30.468Z,14.73
2019-02-19T23:42:00.064Z,11.03
2019-02-19T23:44:29.591Z,16.73
2019-02-19T23:46:59.212Z,8.63
2019-02-19T23:49:28.741Z,16.30
2019-02-19T23:51:58.265Z,13.30
2019-02-19T23:54:27.872Z,9.80
2019-02-19T23:56:57.437Z,13.40
2019-02-19T23:59:26.924Z,12.60
